Flugplatz Niederrhein

Prognose für EDLV

vom 17.07. um 00:00 UTC

Am 17.07. zwischen 00:00 UTC und 00:00 UTC

variable Windrichtung mit 3 kt

Sichtweite 10 km oder mehr

keine signifikanten Wettererscheinungen

keine Wolken


Zwischen 00:00 und 00:00 UTC übergehend zu

Wind 8 kt aus 240°

Sichtweite 10 km oder mehr

keine signifikanten Wettererscheinungen

keine Wolken

TAF EDLV 171700Z 1718/1818 VRB03KT CAVOK BECMG 1808/1811 24008KT
Impressum